sensor_id;sensor_type;location;lat;lon;timestamp;temperature;humidity
18712;DHT22;9485;49.386;8.674;2024-02-28T00:02:44;9.70;90.60
18712;DHT22;9485;49.386;8.674;2024-02-28T00:08:06;9.60;90.80
18712;DHT22;9485;49.386;8.674;2024-02-28T00:13:27;9.50;91.10
18712;DHT22;9485;49.386;8.674;2024-02-28T00:18:48;9.40;91.20
18712;DHT22;9485;49.386;8.674;2024-02-28T00:24:09;9.40;91.20
18712;DHT22;9485;49.386;8.674;2024-02-28T00:29:30;9.30;91.20
18712;DHT22;9485;49.386;8.674;2024-02-28T00:34:50;9.30;91.20
18712;DHT22;9485;49.386;8.674;2024-02-28T00:40:13;9.20;91.10
18712;DHT22;9485;49.386;8.674;2024-02-28T00:45:33;9.10;90.90
18712;DHT22;9485;49.386;8.674;2024-02-28T00:50:54;9.00;91.00
18712;DHT22;9485;49.386;8.674;2024-02-28T00:56:17;8.90;91.20
18712;DHT22;9485;49.386;8.674;2024-02-28T01:01:37;8.90;91.20
18712;DHT22;9485;49.386;8.674;2024-02-28T01:06:58;8.80;91.20
18712;DHT22;9485;49.386;8.674;2024-02-28T01:12:20;8.80;91.30
18712;DHT22;9485;49.386;8.674;2024-02-28T01:17:40;8.80;91.40
18712;DHT22;9485;49.386;8.674;2024-02-28T01:23:01;8.70;91.50
18712;DHT22;9485;49.386;8.674;2024-02-28T01:28:23;8.70;91.50
18712;DHT22;9485;49.386;8.674;2024-02-28T01:33:43;8.70;91.40
18712;DHT22;9485;49.386;8.674;2024-02-28T01:39:03;8.60;91.40
18712;DHT22;9485;49.386;8.674;2024-02-28T01:44:26;8.50;91.40
18712;DHT22;9485;49.386;8.674;2024-02-28T01:49:47;8.50;91.30
18712;DHT22;9485;49.386;8.674;2024-02-28T01:55:10;8.40;91.30
18712;DHT22;9485;49.386;8.674;2024-02-28T02:00:32;8.40;91.40
18712;DHT22;9485;49.386;8.674;2024-02-28T02:05:53;8.30;91.40
18712;DHT22;9485;49.386;8.674;2024-02-28T02:11:15;8.30;91.60
18712;DHT22;9485;49.386;8.674;2024-02-28T02:16:39;8.20;91.60
18712;DHT22;9485;49.386;8.674;2024-02-28T02:22:02;8.20;91.50
18712;DHT22;9485;49.386;8.674;2024-02-28T02:27:27;8.20;91.50
18712;DHT22;9485;49.386;8.674;2024-02-28T02:32:47;8.10;91.50
18712;DHT22;9485;49.386;8.674;2024-02-28T02:38:08;8.10;91.70
18712;DHT22;9485;49.386;8.674;2024-02-28T02:43:30;8.00;91.80
18712;DHT22;9485;49.386;8.674;2024-02-28T02:48:50;8.00;92.10
18712;DHT22;9485;49.386;8.674;2024-02-28T02:54:12;8.00;92.20
18712;DHT22;9485;49.386;8.674;2024-02-28T02:59:34;8.00;92.20
18712;DHT22;9485;49.386;8.674;2024-02-28T03:04:56;8.00;92.10
18712;DHT22;9485;49.386;8.674;2024-02-28T03:10:16;8.00;92.40
18712;DHT22;9485;49.386;8.674;2024-02-28T03:15:38;8.00;92.00
18712;DHT22;9485;49.386;8.674;2024-02-28T03:20:58;7.90;91.90
18712;DHT22;9485;49.386;8.674;2024-02-28T03:26:19;8.00;92.00
18712;DHT22;9485;49.386;8.674;2024-02-28T03:31:41;7.90;91.90
18712;DHT22;9485;49.386;8.674;2024-02-28T03:37:01;7.90;92.00
18712;DHT22;9485;49.386;8.674;2024-02-28T03:42:22;7.80;91.90
18712;DHT22;9485;49.386;8.674;2024-02-28T03:47:44;7.80;91.90
18712;DHT22;9485;49.386;8.674;2024-02-28T03:53:04;7.80;91.70
18712;DHT22;9485;49.386;8.674;2024-02-28T03:58:27;7.70;91.60
18712;DHT22;9485;49.386;8.674;2024-02-28T04:03:50;7.70;91.60
18712;DHT22;9485;49.386;8.674;2024-02-28T04:09:11;7.60;91.50
18712;DHT22;9485;49.386;8.674;2024-02-28T04:14:31;7.60;91.60
18712;DHT22;9485;49.386;8.674;2024-02-28T04:19:53;7.60;91.70
18712;DHT22;9485;49.386;8.674;2024-02-28T04:25:17;7.50;91.40
18712;DHT22;9485;49.386;8.674;2024-02-28T04:30:38;7.50;91.40
18712;DHT22;9485;49.386;8.674;2024-02-28T04:35:59;7.40;91.40
18712;DHT22;9485;49.386;8.674;2024-02-28T04:41:20;7.30;91.50
18712;DHT22;9485;49.386;8.674;2024-02-28T04:46:41;7.30;91.50
18712;DHT22;9485;49.386;8.674;2024-02-28T04:52:03;7.30;91.60
18712;DHT22;9485;49.386;8.674;2024-02-28T04:57:24;7.20;91.50
18712;DHT22;9485;49.386;8.674;2024-02-28T05:02:44;7.20;91.60
18712;DHT22;9485;49.386;8.674;2024-02-28T05:08:07;7.20;91.60
18712;DHT22;9485;49.386;8.674;2024-02-28T05:13:27;7.10;91.60
18712;DHT22;9485;49.386;8.674;2024-02-28T05:18:48;7.10;91.50
18712;DHT22;9485;49.386;8.674;2024-02-28T05:24:09;7.00;91.60
18712;DHT22;9485;49.386;8.674;2024-02-28T05:29:30;7.00;91.60
18712;DHT22;9485;49.386;8.674;2024-02-28T05:34:51;7.00;91.60
18712;DHT22;9485;49.386;8.674;2024-02-28T05:40:12;7.00;91.40
18712;DHT22;9485;49.386;8.674;2024-02-28T05:45:33;6.90;91.30
18712;DHT22;9485;49.386;8.674;2024-02-28T05:50:53;6.80;91.20
18712;DHT22;9485;49.386;8.674;2024-02-28T05:56:15;6.80;91.30
18712;DHT22;9485;49.386;8.674;2024-02-28T06:01:38;6.70;91.40
18712;DHT22;9485;49.386;8.674;2024-02-28T06:06:59;6.70;91.50
18712;DHT22;9485;49.386;8.674;2024-02-28T06:12:21;6.70;91.60
18712;DHT22;9485;49.386;8.674;2024-02-28T06:17:42;6.60;91.40
18712;DHT22;9485;49.386;8.674;2024-02-28T06:23:03;6.60;91.60
18712;DHT22;9485;49.386;8.674;2024-02-28T06:28:26;6.60;91.70
18712;DHT22;9485;49.386;8.674;2024-02-28T06:33:46;6.60;91.80
18712;DHT22;9485;49.386;8.674;2024-02-28T06:39:07;6.70;91.90
18712;DHT22;9485;49.386;8.674;2024-02-28T06:44:29;6.70;92.30
18712;DHT22;9485;49.386;8.674;2024-02-28T06:49:49;6.70;91.90
18712;DHT22;9485;49.386;8.674;2024-02-28T06:55:11;6.70;92.10
18712;DHT22;9485;49.386;8.674;2024-02-28T07:00:34;6.70;92.20
18712;DHT22;9485;49.386;8.674;2024-02-28T07:05:55;6.80;92.30
18712;DHT22;9485;49.386;8.674;2024-02-28T07:11:16;6.80;92.40
18712;DHT22;9485;49.386;8.674;2024-02-28T07:16:39;6.90;93.10
18712;DHT22;9485;49.386;8.674;2024-02-28T07:21:59;7.00;93.00
18712;DHT22;9485;49.386;8.674;2024-02-28T07:27:22;7.10;93.30
18712;DHT22;9485;49.386;8.674;2024-02-28T07:32:44;7.30;93.60
18712;DHT22;9485;49.386;8.674;2024-02-28T07:38:05;7.40;93.70
18712;DHT22;9485;49.386;8.674;2024-02-28T07:43:27;7.50;94.00
18712;DHT22;9485;49.386;8.674;2024-02-28T07:48:53;7.70;94.30
18712;DHT22;9485;49.386;8.674;2024-02-28T07:54:14;7.90;94.50
18712;DHT22;9485;49.386;8.674;2024-02-28T07:59:38;8.10;94.80
18712;DHT22;9485;49.386;8.674;2024-02-28T08:05:00;8.30;95.00
18712;DHT22;9485;49.386;8.674;2024-02-28T08:10:22;8.60;95.30
18712;DHT22;9485;49.386;8.674;2024-02-28T08:15:43;8.90;95.80
18712;DHT22;9485;49.386;8.674;2024-02-28T08:21:05;9.20;96.50
18712;DHT22;9485;49.386;8.674;2024-02-28T08:26:26;9.70;97.10
18712;DHT22;9485;49.386;8.674;2024-02-28T08:31:47;10.20;97.60
18712;DHT22;9485;49.386;8.674;2024-02-28T08:37:08;10.70;97.80
18712;DHT22;9485;49.386;8.674;2024-02-28T08:42:29;11.30;97.90
18712;DHT22;9485;49.386;8.674;2024-02-28T08:47:50;11.90;98.10
18712;DHT22;9485;49.386;8.674;2024-02-28T08:53:13;12.50;98.10
18712;DHT22;9485;49.386;8.674;2024-02-28T08:58:33;13.10;98.00
18712;DHT22;9485;49.386;8.674;2024-02-28T09:03:54;13.70;97.80
18712;DHT22;9485;49.386;8.674;2024-02-28T09:09:16;14.20;96.90
18712;DHT22;9485;49.386;8.674;2024-02-28T09:14:37;14.70;96.30
18712;DHT22;9485;49.386;8.674;2024-02-28T09:19:57;15.10;96.80
18712;DHT22;9485;49.386;8.674;2024-02-28T09:25:21;15.50;95.30
18712;DHT22;9485;49.386;8.674;2024-02-28T09:30:42;15.70;93.00
18712;DHT22;9485;49.386;8.674;2024-02-28T09:36:04;15.50;92.60
18712;DHT22;9485;49.386;8.674;2024-02-28T09:41:26;15.50;93.60
18712;DHT22;9485;49.386;8.674;2024-02-28T09:46:50;15.70;95.80
18712;DHT22;9485;49.386;8.674;2024-02-28T09:52:11;16.40;98.30
18712;DHT22;9485;49.386;8.674;2024-02-28T09:57:34;17.30;99.90
18712;DHT22;9485;49.386;8.674;2024-02-28T10:02:57;18.30;96.10
18712;DHT22;9485;49.386;8.674;2024-02-28T10:08:20;18.70;93.90
18712;DHT22;9485;49.386;8.674;2024-02-28T10:13:42;18.90;94.40
18712;DHT22;9485;49.386;8.674;2024-02-28T10:19:02;19.30;95.40
18712;DHT22;9485;49.386;8.674;2024-02-28T10:24:24;20.00;95.20
18712;DHT22;9485;49.386;8.674;2024-02-28T10:29:46;20.70;94.80
18712;DHT22;9485;49.386;8.674;2024-02-28T10:35:07;21.40;93.10
18712;DHT22;9485;49.386;8.674;2024-02-28T10:40:29;21.60;91.10
18712;DHT22;9485;49.386;8.674;2024-02-28T10:45:51;21.70;91.50
18712;DHT22;9485;49.386;8.674;2024-02-28T10:51:15;22.10;91.60
18712;DHT22;9485;49.386;8.674;2024-02-28T10:56:38;22.70;90.40
18712;DHT22;9485;49.386;8.674;2024-02-28T11:02:00;23.00;88.20
18712;DHT22;9485;49.386;8.674;2024-02-28T11:07:22;22.90;82.60
18712;DHT22;9485;49.386;8.674;2024-02-28T11:12:42;22.50;82.80
18712;DHT22;9485;49.386;8.674;2024-02-28T11:18:11;22.10;83.60
18712;DHT22;9485;49.386;8.674;2024-02-28T11:23:35;21.90;79.60
18712;DHT22;9485;49.386;8.674;2024-02-28T11:28:57;21.80;80.60
18712;DHT22;9485;49.386;8.674;2024-02-28T11:34:19;21.40;80.60
18712;DHT22;9485;49.386;8.674;2024-02-28T11:39:46;20.90;79.80
18712;DHT22;9485;49.386;8.674;2024-02-28T11:45:10;20.60;79.20
18712;DHT22;9485;49.386;8.674;2024-02-28T11:50:32;20.60;81.70
18712;DHT22;9485;49.386;8.674;2024-02-28T11:55:53;20.60;81.40
18712;DHT22;9485;49.386;8.674;2024-02-28T12:01:14;20.70;83.10
18712;DHT22;9485;49.386;8.674;2024-02-28T12:06:37;20.80;83.30
18712;DHT22;9485;49.386;8.674;2024-02-28T12:12:00;21.00;81.90
18712;DHT22;9485;49.386;8.674;2024-02-28T12:17:24;21.60;80.90
18712;DHT22;9485;49.386;8.674;2024-02-28T12:22:47;22.50;80.50
18712;DHT22;9485;49.386;8.674;2024-02-28T12:28:08;23.20;78.90
18712;DHT22;9485;49.386;8.674;2024-02-28T12:33:30;23.90;78.50
18712;DHT22;9485;49.386;8.674;2024-02-28T12:38:53;24.40;76.90
18712;DHT22;9485;49.386;8.674;2024-02-28T12:44:13;24.70;75.60
18712;DHT22;9485;49.386;8.674;2024-02-28T12:49:34;24.90;76.00
18712;DHT22;9485;49.386;8.674;2024-02-28T12:54:56;25.00;76.00
18712;DHT22;9485;49.386;8.674;2024-02-28T13:00:17;25.00;75.00
18712;DHT22;9485;49.386;8.674;2024-02-28T13:05:38;24.90;75.30
18712;DHT22;9485;49.386;8.674;2024-02-28T13:11:00;24.80;75.80
18712;DHT22;9485;49.386;8.674;2024-02-28T13:16:20;24.70;74.40
18712;DHT22;9485;49.386;8.674;2024-02-28T13:21:42;24.50;75.30
18712;DHT22;9485;49.386;8.674;2024-02-28T13:27:04;24.20;75.50
18712;DHT22;9485;49.386;8.674;2024-02-28T13:32:25;24.00;74.20
18712;DHT22;9485;49.386;8.674;2024-02-28T13:37:45;23.80;76.10
18712;DHT22;9485;49.386;8.674;2024-02-28T13:43:07;23.70;76.90
18712;DHT22;9485;49.386;8.674;2024-02-28T13:48:28;23.60;76.30
18712;DHT22;9485;49.386;8.674;2024-02-28T13:53:50;23.50;76.60
18712;DHT22;9485;49.386;8.674;2024-02-28T13:59:13;23.20;75.60
18712;DHT22;9485;49.386;8.674;2024-02-28T14:04:34;22.80;73.50
18712;DHT22;9485;49.386;8.674;2024-02-28T14:09:55;22.40;74.20
18712;DHT22;9485;49.386;8.674;2024-02-28T14:15:18;22.00;74.10
18712;DHT22;9485;49.386;8.674;2024-02-28T14:20:38;21.50;73.30
18712;DHT22;9485;49.386;8.674;2024-02-28T14:25:59;21.10;73.60
18712;DHT22;9485;49.386;8.674;2024-02-28T14:31:22;20.50;73.10
18712;DHT22;9485;49.386;8.674;2024-02-28T14:36:43;20.10;73.20
18712;DHT22;9485;49.386;8.674;2024-02-28T14:42:04;19.70;74.00
18712;DHT22;9485;49.386;8.674;2024-02-28T14:47:29;19.30;74.70
18712;DHT22;9485;49.386;8.674;2024-02-28T14:52:50;19.10;74.30
18712;DHT22;9485;49.386;8.674;2024-02-28T14:58:10;18.80;75.50
18712;DHT22;9485;49.386;8.674;2024-02-28T15:03:33;18.70;75.90
18712;DHT22;9485;49.386;8.674;2024-02-28T15:08:53;18.50;75.50
18712;DHT22;9485;49.386;8.674;2024-02-28T15:14:14;18.40;76.50
18712;DHT22;9485;49.386;8.674;2024-02-28T15:19:36;18.20;76.40
18712;DHT22;9485;49.386;8.674;2024-02-28T15:24:56;18.10;76.30
18712;DHT22;9485;49.386;8.674;2024-02-28T15:30:17;17.90;77.00
18712;DHT22;9485;49.386;8.674;2024-02-28T15:35:39;17.90;77.20
18712;DHT22;9485;49.386;8.674;2024-02-28T15:40:59;17.70;76.80
18712;DHT22;9485;49.386;8.674;2024-02-28T15:46:21;17.50;77.20
18712;DHT22;9485;49.386;8.674;2024-02-28T15:51:43;17.30;77.60
18712;DHT22;9485;49.386;8.674;2024-02-28T15:57:03;17.20;77.40
18712;DHT22;9485;49.386;8.674;2024-02-28T16:02:24;17.10;78.30
18712;DHT22;9485;49.386;8.674;2024-02-28T16:07:46;17.10;78.30
18712;DHT22;9485;49.386;8.674;2024-02-28T16:13:06;17.00;77.50
18712;DHT22;9485;49.386;8.674;2024-02-28T16:18:27;16.90;78.10
18712;DHT22;9485;49.386;8.674;2024-02-28T16:23:50;16.80;77.90
18712;DHT22;9485;49.386;8.674;2024-02-28T16:29:10;16.60;77.30
18712;DHT22;9485;49.386;8.674;2024-02-28T16:34:31;16.40;77.60
18712;DHT22;9485;49.386;8.674;2024-02-28T16:39:55;16.20;77.50
18712;DHT22;9485;49.386;8.674;2024-02-28T16:45:15;16.00;77.40
18712;DHT22;9485;49.386;8.674;2024-02-28T16:50:36;15.70;77.70
18712;DHT22;9485;49.386;8.674;2024-02-28T16:55:58;15.50;77.80
18712;DHT22;9485;49.386;8.674;2024-02-28T17:01:18;15.30;77.70
18712;DHT22;9485;49.386;8.674;2024-02-28T17:06:41;15.10;78.20
18712;DHT22;9485;49.386;8.674;2024-02-28T17:12:04;14.90;78.40
18712;DHT22;9485;49.386;8.674;2024-02-28T17:17:25;14.70;78.30
18712;DHT22;9485;49.386;8.674;2024-02-28T17:22:45;14.60;78.90
18712;DHT22;9485;49.386;8.674;2024-02-28T17:28:07;14.40;79.10
18712;DHT22;9485;49.386;8.674;2024-02-28T17:33:27;14.30;79.00
18712;DHT22;9485;49.386;8.674;2024-02-28T17:38:48;14.20;79.60
18712;DHT22;9485;49.386;8.674;2024-02-28T17:44:10;14.10;79.80
18712;DHT22;9485;49.386;8.674;2024-02-28T17:49:31;14.00;79.90
18712;DHT22;9485;49.386;8.674;2024-02-28T17:54:53;13.90;80.30
18712;DHT22;9485;49.386;8.674;2024-02-28T18:00:16;13.80;80.50
18712;DHT22;9485;49.386;8.674;2024-02-28T18:05:40;13.80;80.40
18712;DHT22;9485;49.386;8.674;2024-02-28T18:11:01;13.80;81.10
18712;DHT22;9485;49.386;8.674;2024-02-28T18:16:24;13.70;81.20
18712;DHT22;9485;49.386;8.674;2024-02-28T18:21:45;13.70;81.00
18712;DHT22;9485;49.386;8.674;2024-02-28T18:27:05;13.60;81.20
18712;DHT22;9485;49.386;8.674;2024-02-28T18:32:29;13.50;81.10
18712;DHT22;9485;49.386;8.674;2024-02-28T18:37:51;13.40;81.10
18712;DHT22;9485;49.386;8.674;2024-02-28T18:43:11;13.30;81.20
18712;DHT22;9485;49.386;8.674;2024-02-28T18:48:35;13.20;81.10
18712;DHT22;9485;49.386;8.674;2024-02-28T18:53:56;13.10;80.80
18712;DHT22;9485;49.386;8.674;2024-02-28T18:59:17;13.00;80.90
18712;DHT22;9485;49.386;8.674;2024-02-28T19:04:39;12.80;80.90
18712;DHT22;9485;49.386;8.674;2024-02-28T19:10:00;12.60;80.80
18712;DHT22;9485;49.386;8.674;2024-02-28T19:15:20;12.50;81.10
18712;DHT22;9485;49.386;8.674;2024-02-28T19:20:42;12.30;81.20
18712;DHT22;9485;49.386;8.674;2024-02-28T19:26:03;12.20;81.40
18712;DHT22;9485;49.386;8.674;2024-02-28T19:31:24;12.10;82.10
18712;DHT22;9485;49.386;8.674;2024-02-28T19:36:46;12.10;82.60
18712;DHT22;9485;49.386;8.674;2024-02-28T19:42:06;12.10;82.60
18712;DHT22;9485;49.386;8.674;2024-02-28T19:47:27;12.00;82.70
18712;DHT22;9485;49.386;8.674;2024-02-28T19:52:49;12.00;82.50
18712;DHT22;9485;49.386;8.674;2024-02-28T19:58:10;11.90;82.40
18712;DHT22;9485;49.386;8.674;2024-02-28T20:03:30;11.90;82.90
18712;DHT22;9485;49.386;8.674;2024-02-28T20:08:52;11.80;82.90
18712;DHT22;9485;49.386;8.674;2024-02-28T20:14:13;11.80;83.00
18712;DHT22;9485;49.386;8.674;2024-02-28T20:19:35;11.80;83.30
18712;DHT22;9485;49.386;8.674;2024-02-28T20:24:57;11.80;83.10
18712;DHT22;9485;49.386;8.674;2024-02-28T20:30:18;11.70;82.90
18712;DHT22;9485;49.386;8.674;2024-02-28T20:35:39;11.70;82.90
18712;DHT22;9485;49.386;8.674;2024-02-28T20:41:01;11.60;82.90
18712;DHT22;9485;49.386;8.674;2024-02-28T20:46:21;11.40;82.50
18712;DHT22;9485;49.386;8.674;2024-02-28T20:51:43;11.30;82.60
18712;DHT22;9485;49.386;8.674;2024-02-28T20:57:05;11.20;82.60
18712;DHT22;9485;49.386;8.674;2024-02-28T21:02:26;11.10;82.30
18712;DHT22;9485;49.386;8.674;2024-02-28T21:07:47;10.90;82.60
18712;DHT22;9485;49.386;8.674;2024-02-28T21:13:08;10.80;82.60
18712;DHT22;9485;49.386;8.674;2024-02-28T21:18:29;10.60;82.50
18712;DHT22;9485;49.386;8.674;2024-02-28T21:23:49;10.50;82.50
18712;DHT22;9485;49.386;8.674;2024-02-28T21:29:11;10.30;82.30
18712;DHT22;9485;49.386;8.674;2024-02-28T21:34:32;10.20;82.20
18712;DHT22;9485;49.386;8.674;2024-02-28T21:39:52;10.00;82.50
18712;DHT22;9485;49.386;8.674;2024-02-28T21:45:14;9.90;82.60
18712;DHT22;9485;49.386;8.674;2024-02-28T21:50:37;9.80;82.70
18712;DHT22;9485;49.386;8.674;2024-02-28T21:55:59;9.70;83.00
18712;DHT22;9485;49.386;8.674;2024-02-28T22:01:21;9.60;83.00
18712;DHT22;9485;49.386;8.674;2024-02-28T22:06:42;9.50;83.10
18712;DHT22;9485;49.386;8.674;2024-02-28T22:12:03;9.40;83.40
18712;DHT22;9485;49.386;8.674;2024-02-28T22:17:25;9.30;83.60
18712;DHT22;9485;49.386;8.674;2024-02-28T22:22:46;9.20;83.70
18712;DHT22;9485;49.386;8.674;2024-02-28T22:28:06;9.20;84.10
18712;DHT22;9485;49.386;8.674;2024-02-28T22:33:28;9.10;84.40
18712;DHT22;9485;49.386;8.674;2024-02-28T22:38:49;9.10;84.40
18712;DHT22;9485;49.386;8.674;2024-02-28T22:44:11;9.10;84.70
18712;DHT22;9485;49.386;8.674;2024-02-28T22:49:33;9.00;84.70
18712;DHT22;9485;49.386;8.674;2024-02-28T22:54:54;9.00;84.70
18712;DHT22;9485;49.386;8.674;2024-02-28T23:00:15;8.90;84.60
18712;DHT22;9485;49.386;8.674;2024-02-28T23:05:49;8.90;84.60
18712;DHT22;9485;49.386;8.674;2024-02-28T23:11:10;8.80;85.10
18712;DHT22;9485;49.386;8.674;2024-02-28T23:16:31;8.80;85.70
18712;DHT22;9485;49.386;8.674;2024-02-28T23:21:53;8.80;86.00
18712;DHT22;9485;49.386;8.674;2024-02-28T23:27:14;8.80;86.20
18712;DHT22;9485;49.386;8.674;2024-02-28T23:32:35;8.80;86.30
18712;DHT22;9485;49.386;8.674;2024-02-28T23:37:57;8.90;86.70
18712;DHT22;9485;49.386;8.674;2024-02-28T23:43:18;8.90;86.80
18712;DHT22;9485;49.386;8.674;2024-02-28T23:48:39;8.90;87.10
18712;DHT22;9485;49.386;8.674;2024-02-28T23:54:01;9.00;87.30
18712;DHT22;9485;49.386;8.674;2024-02-28T23:59:22;9.00;87.40
